sensor_id;sensor_type;location;lat;lon;timestamp;temperature;humidity
60353;DHT22;46196;52.970;6.954;2022-08-14T00:01:11;22.10;95.00
60353;DHT22;46196;52.970;6.954;2022-08-14T00:03:37;22.10;95.10
60353;DHT22;46196;52.970;6.954;2022-08-14T00:06:03;22.10;95.20
60353;DHT22;46196;52.970;6.954;2022-08-14T00:08:29;22.00;95.30
60353;DHT22;46196;52.970;6.954;2022-08-14T00:10:55;22.00;95.40
60353;DHT22;46196;52.970;6.954;2022-08-14T00:13:23;22.00;95.40
60353;DHT22;46196;52.970;6.954;2022-08-14T00:15:53;21.90;95.80
60353;DHT22;46196;52.970;6.954;2022-08-14T00:18:22;21.90;95.80
60353;DHT22;46196;52.970;6.954;2022-08-14T00:20:49;21.90;95.90
60353;DHT22;46196;52.970;6.954;2022-08-14T00:23:16;21.90;96.00
60353;DHT22;46196;52.970;6.954;2022-08-14T00:25:47;21.80;96.20
60353;DHT22;46196;52.970;6.954;2022-08-14T00:28:14;21.80;96.60
60353;DHT22;46196;52.970;6.954;2022-08-14T00:30:40;21.70;96.60
60353;DHT22;46196;52.970;6.954;2022-08-14T00:33:06;21.70;96.80
60353;DHT22;46196;52.970;6.954;2022-08-14T00:35:32;21.70;96.80
60353;DHT22;46196;52.970;6.954;2022-08-14T00:37:58;21.70;97.10
60353;DHT22;46196;52.970;6.954;2022-08-14T00:40:25;21.60;97.30
60353;DHT22;46196;52.970;6.954;2022-08-14T00:42:51;21.60;97.60
60353;DHT22;46196;52.970;6.954;2022-08-14T00:45:17;21.60;97.70
60353;DHT22;46196;52.970;6.954;2022-08-14T00:47:45;21.50;97.70
60353;DHT22;46196;52.970;6.954;2022-08-14T00:50:15;21.50;98.10
60353;DHT22;46196;52.970;6.954;2022-08-14T00:52:43;21.50;98.20
60353;DHT22;46196;52.970;6.954;2022-08-14T00:55:11;21.50;98.30
60353;DHT22;46196;52.970;6.954;2022-08-14T00:57:37;21.40;98.50
60353;DHT22;46196;52.970;6.954;2022-08-14T01:00:12;21.40;98.70
60353;DHT22;46196;52.970;6.954;2022-08-14T01:02:41;21.40;98.80
60353;DHT22;46196;52.970;6.954;2022-08-14T01:05:10;21.40;98.90
60353;DHT22;46196;52.970;6.954;2022-08-14T01:07:50;21.30;98.80
60353;DHT22;46196;52.970;6.954;2022-08-14T01:10:19;21.30;98.90
60353;DHT22;46196;52.970;6.954;2022-08-14T01:12:45;21.30;99.00
60353;DHT22;46196;52.970;6.954;2022-08-14T01:15:13;21.20;99.00
60353;DHT22;46196;52.970;6.954;2022-08-14T01:17:41;21.20;99.20
60353;DHT22;46196;52.970;6.954;2022-08-14T01:20:26;21.20;99.50
60353;DHT22;46196;52.970;6.954;2022-08-14T01:23:12;21.10;99.90
60353;DHT22;46196;52.970;6.954;2022-08-14T01:25:38;21.10;99.90
60353;DHT22;46196;52.970;6.954;2022-08-14T01:28:03;21.10;99.90
60353;DHT22;46196;52.970;6.954;2022-08-14T01:30:30;21.00;99.90
60353;DHT22;46196;52.970;6.954;2022-08-14T01:33:03;21.00;99.90
60353;DHT22;46196;52.970;6.954;2022-08-14T01:35:29;21.00;99.90
60353;DHT22;46196;52.970;6.954;2022-08-14T01:37:56;21.00;99.90
60353;DHT22;46196;52.970;6.954;2022-08-14T01:40:27;20.90;99.90
60353;DHT22;46196;52.970;6.954;2022-08-14T01:42:53;20.90;99.90
60353;DHT22;46196;52.970;6.954;2022-08-14T01:45:20;20.80;99.90
60353;DHT22;46196;52.970;6.954;2022-08-14T01:47:45;20.80;99.90
60353;DHT22;46196;52.970;6.954;2022-08-14T01:50:11;20.80;99.90
60353;DHT22;46196;52.970;6.954;2022-08-14T01:52:38;20.80;99.90
60353;DHT22;46196;52.970;6.954;2022-08-14T01:55:06;20.80;99.90
60353;DHT22;46196;52.970;6.954;2022-08-14T01:57:36;20.80;99.90
60353;DHT22;46196;52.970;6.954;2022-08-14T02:00:05;20.70;99.90
60353;DHT22;46196;52.970;6.954;2022-08-14T02:02:33;20.70;99.90
60353;DHT22;46196;52.970;6.954;2022-08-14T02:05:00;20.70;99.90
60353;DHT22;46196;52.970;6.954;2022-08-14T02:07:26;20.70;99.90
60353;DHT22;46196;52.970;6.954;2022-08-14T02:09:51;20.70;99.90
60353;DHT22;46196;52.970;6.954;2022-08-14T02:12:17;20.60;99.90
60353;DHT22;46196;52.970;6.954;2022-08-14T02:14:43;20.60;99.90
60353;DHT22;46196;52.970;6.954;2022-08-14T02:17:09;20.60;99.90
60353;DHT22;46196;52.970;6.954;2022-08-14T02:19:37;20.60;99.90
60353;DHT22;46196;52.970;6.954;2022-08-14T02:22:03;20.50;99.90
60353;DHT22;46196;52.970;6.954;2022-08-14T02:24:30;20.50;99.90
60353;DHT22;46196;52.970;6.954;2022-08-14T02:26:58;20.50;99.90
60353;DHT22;46196;52.970;6.954;2022-08-14T02:29:27;20.50;99.90
60353;DHT22;46196;52.970;6.954;2022-08-14T02:31:55;20.50;99.90
60353;DHT22;46196;52.970;6.954;2022-08-14T02:34:30;20.40;99.90
60353;DHT22;46196;52.970;6.954;2022-08-14T02:37:07;20.40;99.90
60353;DHT22;46196;52.970;6.954;2022-08-14T02:39:39;20.40;99.90
60353;DHT22;46196;52.970;6.954;2022-08-14T02:42:07;20.40;99.90
60353;DHT22;46196;52.970;6.954;2022-08-14T02:44:33;20.40;99.90
60353;DHT22;46196;52.970;6.954;2022-08-14T02:46:59;20.40;99.90
60353;DHT22;46196;52.970;6.954;2022-08-14T02:49:25;20.30;99.90
60353;DHT22;46196;52.970;6.954;2022-08-14T02:51:56;20.30;99.90
60353;DHT22;46196;52.970;6.954;2022-08-14T02:54:23;20.30;99.90
60353;DHT22;46196;52.970;6.954;2022-08-14T02:56:49;20.30;99.90
60353;DHT22;46196;52.970;6.954;2022-08-14T02:59:16;20.30;99.90
60353;DHT22;46196;52.970;6.954;2022-08-14T03:01:42;20.20;99.90
60353;DHT22;46196;52.970;6.954;2022-08-14T03:04:08;20.20;99.90
60353;DHT22;46196;52.970;6.954;2022-08-14T03:06:36;20.20;99.90
60353;DHT22;46196;52.970;6.954;2022-08-14T03:09:03;20.20;99.90
60353;DHT22;46196;52.970;6.954;2022-08-14T03:11:29;20.20;99.90
60353;DHT22;46196;52.970;6.954;2022-08-14T03:13:56;20.20;99.90
60353;DHT22;46196;52.970;6.954;2022-08-14T03:16:23;20.20;99.90
60353;DHT22;46196;52.970;6.954;2022-08-14T03:18:51;20.20;99.90
60353;DHT22;46196;52.970;6.954;2022-08-14T03:21:19;20.20;99.90
60353;DHT22;46196;52.970;6.954;2022-08-14T03:26:18;20.20;99.90
60353;DHT22;46196;52.970;6.954;2022-08-14T03:28:48;20.20;99.90
60353;DHT22;46196;52.970;6.954;2022-08-14T03:31:15;20.20;99.90
60353;DHT22;46196;52.970;6.954;2022-08-14T03:33:41;20.20;99.90
60353;DHT22;46196;52.970;6.954;2022-08-14T03:53:38;20.20;99.90
60353;DHT22;46196;52.970;6.954;2022-08-14T03:56:10;20.10;99.90
60353;DHT22;46196;52.970;6.954;2022-08-14T03:58:41;20.10;99.90
60353;DHT22;46196;52.970;6.954;2022-08-14T04:01:14;20.00;99.90
60353;DHT22;46196;52.970;6.954;2022-08-14T04:03:40;20.00;99.90
60353;DHT22;46196;52.970;6.954;2022-08-14T04:06:06;20.00;99.90
60353;DHT22;46196;52.970;6.954;2022-08-14T04:08:37;20.00;99.90
60353;DHT22;46196;52.970;6.954;2022-08-14T04:11:04;19.90;99.90
60353;DHT22;46196;52.970;6.954;2022-08-14T04:13:31;19.90;99.90
60353;DHT22;46196;52.970;6.954;2022-08-14T04:15:57;19.90;99.90
60353;DHT22;46196;52.970;6.954;2022-08-14T04:18:24;19.90;99.90
60353;DHT22;46196;52.970;6.954;2022-08-14T04:20:50;19.80;99.90
60353;DHT22;46196;52.970;6.954;2022-08-14T04:23:16;19.80;99.90
60353;DHT22;46196;52.970;6.954;2022-08-14T04:25:42;19.80;99.90
60353;DHT22;46196;52.970;6.954;2022-08-14T04:28:09;19.80;99.90
60353;DHT22;46196;52.970;6.954;2022-08-14T04:30:36;19.80;99.90
60353;DHT22;46196;52.970;6.954;2022-08-14T04:33:06;19.70;99.90
60353;DHT22;46196;52.970;6.954;2022-08-14T04:35:34;19.70;99.90
60353;DHT22;46196;52.970;6.954;2022-08-14T04:38:08;19.70;99.90
60353;DHT22;46196;52.970;6.954;2022-08-14T04:40:53;19.70;99.90
60353;DHT22;46196;52.970;6.954;2022-08-14T04:43:57;19.60;99.90
60353;DHT22;46196;52.970;6.954;2022-08-14T04:46:24;19.60;99.90
60353;DHT22;46196;52.970;6.954;2022-08-14T04:48:50;19.60;99.90
60353;DHT22;46196;52.970;6.954;2022-08-14T04:51:18;19.60;99.90
60353;DHT22;46196;52.970;6.954;2022-08-14T04:53:47;19.60;99.90
60353;DHT22;46196;52.970;6.954;2022-08-14T04:56:20;19.60;99.90
60353;DHT22;46196;52.970;6.954;2022-08-14T04:58:48;19.50;99.90
60353;DHT22;46196;52.970;6.954;2022-08-14T05:01:14;19.50;99.90
60353;DHT22;46196;52.970;6.954;2022-08-14T05:03:41;19.60;99.90
60353;DHT22;46196;52.970;6.954;2022-08-14T05:06:09;19.50;99.90
60353;DHT22;46196;52.970;6.954;2022-08-14T05:08:36;19.60;99.90
60353;DHT22;46196;52.970;6.954;2022-08-14T05:11:04;19.60;99.90
60353;DHT22;46196;52.970;6.954;2022-08-14T05:13:32;19.60;99.90
60353;DHT22;46196;52.970;6.954;2022-08-14T05:15:59;19.60;99.90
60353;DHT22;46196;52.970;6.954;2022-08-14T05:18:32;19.60;99.90
60353;DHT22;46196;52.970;6.954;2022-08-14T05:21:00;19.60;99.90
60353;DHT22;46196;52.970;6.954;2022-08-14T05:23:28;19.70;99.90
60353;DHT22;46196;52.970;6.954;2022-08-14T05:25:57;19.70;99.90
60353;DHT22;46196;52.970;6.954;2022-08-14T05:28:30;19.70;99.90
60353;DHT22;46196;52.970;6.954;2022-08-14T05:30:59;19.70;99.90
60353;DHT22;46196;52.970;6.954;2022-08-14T05:33:27;19.70;99.90
60353;DHT22;46196;52.970;6.954;2022-08-14T05:35:55;19.80;99.90
60353;DHT22;46196;52.970;6.954;2022-08-14T05:38:28;19.80;99.90
60353;DHT22;46196;52.970;6.954;2022-08-14T05:41:19;19.90;99.90
60353;DHT22;46196;52.970;6.954;2022-08-14T05:43:45;19.90;99.90
60353;DHT22;46196;52.970;6.954;2022-08-14T05:46:16;19.90;99.90
60353;DHT22;46196;52.970;6.954;2022-08-14T05:48:52;20.00;99.90
60353;DHT22;46196;52.970;6.954;2022-08-14T05:51:19;20.00;99.90
60353;DHT22;46196;52.970;6.954;2022-08-14T05:53:45;20.00;99.90
60353;DHT22;46196;52.970;6.954;2022-08-14T05:56:11;20.10;99.90
60353;DHT22;46196;52.970;6.954;2022-08-14T05:58:37;20.10;99.90
60353;DHT22;46196;52.970;6.954;2022-08-14T06:01:03;20.20;99.90
60353;DHT22;46196;52.970;6.954;2022-08-14T06:03:29;20.20;99.90
60353;DHT22;46196;52.970;6.954;2022-08-14T06:05:55;20.20;99.90
60353;DHT22;46196;52.970;6.954;2022-08-14T06:08:28;20.30;99.90
60353;DHT22;46196;52.970;6.954;2022-08-14T06:10:56;20.40;99.90
60353;DHT22;46196;52.970;6.954;2022-08-14T06:13:31;20.40;99.90
60353;DHT22;46196;52.970;6.954;2022-08-14T06:15:57;20.50;99.90
60353;DHT22;46196;52.970;6.954;2022-08-14T06:18:23;20.60;99.90
60353;DHT22;46196;52.970;6.954;2022-08-14T06:20:49;20.60;99.90
60353;DHT22;46196;52.970;6.954;2022-08-14T06:23:15;20.70;99.90
60353;DHT22;46196;52.970;6.954;2022-08-14T06:25:41;20.80;99.90
60353;DHT22;46196;52.970;6.954;2022-08-14T06:28:17;20.80;99.90
60353;DHT22;46196;52.970;6.954;2022-08-14T06:30:43;20.90;99.90
60353;DHT22;46196;52.970;6.954;2022-08-14T06:33:09;21.00;99.90
60353;DHT22;46196;52.970;6.954;2022-08-14T06:35:35;21.10;99.90
60353;DHT22;46196;52.970;6.954;2022-08-14T06:38:01;21.10;99.90
60353;DHT22;46196;52.970;6.954;2022-08-14T06:40:30;21.20;99.90
60353;DHT22;46196;52.970;6.954;2022-08-14T06:43:00;21.30;99.90
60353;DHT22;46196;52.970;6.954;2022-08-14T06:45:26;21.40;99.90
60353;DHT22;46196;52.970;6.954;2022-08-14T06:47:52;21.50;99.90
60353;DHT22;46196;52.970;6.954;2022-08-14T06:50:20;21.50;99.90
60353;DHT22;46196;52.970;6.954;2022-08-14T06:52:46;21.70;99.90
60353;DHT22;46196;52.970;6.954;2022-08-14T06:55:13;21.70;99.90
60353;DHT22;46196;52.970;6.954;2022-08-14T06:57:41;21.80;99.90
60353;DHT22;46196;52.970;6.954;2022-08-14T07:00:30;21.90;99.90
60353;DHT22;46196;52.970;6.954;2022-08-14T07:02:56;22.10;99.90
60353;DHT22;46196;52.970;6.954;2022-08-14T07:05:40;22.10;99.90
60353;DHT22;46196;52.970;6.954;2022-08-14T07:08:23;22.20;99.90
60353;DHT22;46196;52.970;6.954;2022-08-14T07:10:54;22.30;99.90
60353;DHT22;46196;52.970;6.954;2022-08-14T07:13:21;22.40;99.90
60353;DHT22;46196;52.970;6.954;2022-08-14T07:15:48;22.50;99.90
60353;DHT22;46196;52.970;6.954;2022-08-14T07:18:25;22.60;99.90
60353;DHT22;46196;52.970;6.954;2022-08-14T07:20:52;22.70;99.90
60353;DHT22;46196;52.970;6.954;2022-08-14T07:23:18;22.80;99.90
60353;DHT22;46196;52.970;6.954;2022-08-14T07:25:45;22.90;99.90
60353;DHT22;46196;52.970;6.954;2022-08-14T07:28:17;23.00;99.90
60353;DHT22;46196;52.970;6.954;2022-08-14T07:30:43;23.40;99.90
60353;DHT22;46196;52.970;6.954;2022-08-14T07:33:11;24.30;99.90
60353;DHT22;46196;52.970;6.954;2022-08-14T07:35:38;25.40;99.90
60353;DHT22;46196;52.970;6.954;2022-08-14T07:38:05;26.40;99.90
60353;DHT22;46196;52.970;6.954;2022-08-14T07:40:31;27.30;99.90
60353;DHT22;46196;52.970;6.954;2022-08-14T07:42:59;28.10;98.70
60353;DHT22;46196;52.970;6.954;2022-08-14T07:45:25;28.90;96.10
60353;DHT22;46196;52.970;6.954;2022-08-14T07:47:51;29.60;92.60
60353;DHT22;46196;52.970;6.954;2022-08-14T07:50:20;30.20;88.90
60353;DHT22;46196;52.970;6.954;2022-08-14T07:52:47;30.60;82.50
60353;DHT22;46196;52.970;6.954;2022-08-14T07:55:15;30.90;75.20
60353;DHT22;46196;52.970;6.954;2022-08-14T07:57:45;31.00;71.90
60353;DHT22;46196;52.970;6.954;2022-08-14T08:00:16;31.40;70.70
60353;DHT22;46196;52.970;6.954;2022-08-14T08:02:46;31.80;65.80
60353;DHT22;46196;52.970;6.954;2022-08-14T08:05:13;32.20;65.90
60353;DHT22;46196;52.970;6.954;2022-08-14T08:07:40;32.60;64.60
60353;DHT22;46196;52.970;6.954;2022-08-14T08:10:12;32.90;61.60
60353;DHT22;46196;52.970;6.954;2022-08-14T08:12:58;33.20;59.80
60353;DHT22;46196;52.970;6.954;2022-08-14T08:15:25;33.50;59.00
60353;DHT22;46196;52.970;6.954;2022-08-14T08:17:52;33.60;56.60
60353;DHT22;46196;52.970;6.954;2022-08-14T08:20:20;33.80;56.20
60353;DHT22;46196;52.970;6.954;2022-08-14T08:22:48;34.10;55.70
60353;DHT22;46196;52.970;6.954;2022-08-14T08:25:16;34.30;54.10
60353;DHT22;46196;52.970;6.954;2022-08-14T08:27:53;34.40;53.10
60353;DHT22;46196;52.970;6.954;2022-08-14T08:30:20;34.60;51.50
60353;DHT22;46196;52.970;6.954;2022-08-14T08:32:46;34.80;51.30
60353;DHT22;46196;52.970;6.954;2022-08-14T08:35:23;34.80;51.10
60353;DHT22;46196;52.970;6.954;2022-08-14T08:37:50;34.90;51.00
60353;DHT22;46196;52.970;6.954;2022-08-14T08:40:25;34.90;49.90
60353;DHT22;46196;52.970;6.954;2022-08-14T08:42:51;34.90;48.70
60353;DHT22;46196;52.970;6.954;2022-08-14T08:45:18;34.90;49.90
60353;DHT22;46196;52.970;6.954;2022-08-14T08:47:45;35.10;49.90
60353;DHT22;46196;52.970;6.954;2022-08-14T08:50:24;35.20;48.90
60353;DHT22;46196;52.970;6.954;2022-08-14T08:52:56;35.30;47.90
60353;DHT22;46196;52.970;6.954;2022-08-14T08:55:36;35.40;48.00
60353;DHT22;46196;52.970;6.954;2022-08-14T08:58:08;35.50;47.10
60353;DHT22;46196;52.970;6.954;2022-08-14T09:00:36;35.50;46.10
60353;DHT22;46196;52.970;6.954;2022-08-14T09:03:05;35.40;46.60
60353;DHT22;46196;52.970;6.954;2022-08-14T09:05:32;35.10;46.70
60353;DHT22;46196;52.970;6.954;2022-08-14T09:08:08;35.00;47.00
60353;DHT22;46196;52.970;6.954;2022-08-14T09:10:35;35.00;47.40
60353;DHT22;46196;52.970;6.954;2022-08-14T09:13:01;35.10;47.20
60353;DHT22;46196;52.970;6.954;2022-08-14T09:15:27;35.10;47.00
60353;DHT22;46196;52.970;6.954;2022-08-14T09:17:53;35.20;46.70
60353;DHT22;46196;52.970;6.954;2022-08-14T09:20:19;34.90;46.40
60353;DHT22;46196;52.970;6.954;2022-08-14T09:22:46;34.80;46.50
60353;DHT22;46196;52.970;6.954;2022-08-14T09:25:12;34.60;46.40
60353;DHT22;46196;52.970;6.954;2022-08-14T09:27:38;34.50;46.60
60353;DHT22;46196;52.970;6.954;2022-08-14T09:30:05;34.30;46.90
60353;DHT22;46196;52.970;6.954;2022-08-14T09:32:52;34.20;47.00
60353;DHT22;46196;52.970;6.954;2022-08-14T09:35:27;34.10;47.20
60353;DHT22;46196;52.970;6.954;2022-08-14T09:38:15;34.10;47.20
60353;DHT22;46196;52.970;6.954;2022-08-14T09:43:32;34.30;46.90
60353;DHT22;46196;52.970;6.954;2022-08-14T09:46:06;34.40;47.30
60353;DHT22;46196;52.970;6.954;2022-08-14T09:48:33;34.60;47.20
60353;DHT22;46196;52.970;6.954;2022-08-14T09:50:59;34.60;46.80
60353;DHT22;46196;52.970;6.954;2022-08-14T09:56:03;34.40;46.90
60353;DHT22;46196;52.970;6.954;2022-08-14T09:58:44;34.50;47.40
60353;DHT22;46196;52.970;6.954;2022-08-14T10:01:14;34.60;46.60
60353;DHT22;46196;52.970;6.954;2022-08-14T10:03:51;34.60;46.60
60353;DHT22;46196;52.970;6.954;2022-08-14T10:06:20;34.60;46.20
60353;DHT22;46196;52.970;6.954;2022-08-14T10:08:57;34.50;45.80
60353;DHT22;46196;52.970;6.954;2022-08-14T10:11:30;34.30;45.70
60353;DHT22;46196;52.970;6.954;2022-08-14T10:14:10;34.10;46.20
60353;DHT22;46196;52.970;6.954;2022-08-14T10:16:42;33.90;46.60
60353;DHT22;46196;52.970;6.954;2022-08-14T10:19:11;33.80;46.60
60353;DHT22;46196;52.970;6.954;2022-08-14T10:21:40;33.50;46.70
60353;DHT22;46196;52.970;6.954;2022-08-14T10:24:23;33.30;46.90
60353;DHT22;46196;52.970;6.954;2022-08-14T10:26:57;33.20;47.70
60353;DHT22;46196;52.970;6.954;2022-08-14T10:31:57;33.30;47.60
60353;DHT22;46196;52.970;6.954;2022-08-14T10:34:30;33.30;47.90
60353;DHT22;46196;52.970;6.954;2022-08-14T10:37:06;33.30;47.20
60353;DHT22;46196;52.970;6.954;2022-08-14T10:39:32;33.00;47.60
60353;DHT22;46196;52.970;6.954;2022-08-14T10:42:12;33.00;48.10
60353;DHT22;46196;52.970;6.954;2022-08-14T10:44:43;32.90;48.40
60353;DHT22;46196;52.970;6.954;2022-08-14T10:47:12;32.90;48.20
60353;DHT22;46196;52.970;6.954;2022-08-14T10:49:41;32.90;48.10
60353;DHT22;46196;52.970;6.954;2022-08-14T10:52:26;32.90;47.60
60353;DHT22;46196;52.970;6.954;2022-08-14T10:55:03;33.00;47.60
60353;DHT22;46196;52.970;6.954;2022-08-14T10:57:32;33.00;47.60
60353;DHT22;46196;52.970;6.954;2022-08-14T11:00:10;33.20;47.50
60353;DHT22;46196;52.970;6.954;2022-08-14T11:02:38;33.30;47.20
60353;DHT22;46196;52.970;6.954;2022-08-14T11:07:39;33.30;47.20
60353;DHT22;46196;52.970;6.954;2022-08-14T11:10:13;33.30;46.90
60353;DHT22;46196;52.970;6.954;2022-08-14T11:12:45;33.20;47.00
60353;DHT22;46196;52.970;6.954;2022-08-14T11:15:19;33.10;47.00
60353;DHT22;46196;52.970;6.954;2022-08-14T11:17:47;33.10;46.70
60353;DHT22;46196;52.970;6.954;2022-08-14T11:20:18;33.10;46.80
60353;DHT22;46196;52.970;6.954;2022-08-14T11:22:45;33.10;47.30
60353;DHT22;46196;52.970;6.954;2022-08-14T11:25:13;33.20;47.20
60353;DHT22;46196;52.970;6.954;2022-08-14T11:27:42;33.30;47.40
60353;DHT22;46196;52.970;6.954;2022-08-14T11:30:13;33.40;47.10
60353;DHT22;46196;52.970;6.954;2022-08-14T11:32:43;33.50;46.80
60353;DHT22;46196;52.970;6.954;2022-08-14T11:35:14;33.60;46.50
60353;DHT22;46196;52.970;6.954;2022-08-14T11:37:56;33.60;46.30
60353;DHT22;46196;52.970;6.954;2022-08-14T11:40:24;33.80;46.50
60353;DHT22;46196;52.970;6.954;2022-08-14T11:42:52;33.80;46.40
60353;DHT22;46196;52.970;6.954;2022-08-14T11:45:21;33.90;45.90
60353;DHT22;46196;52.970;6.954;2022-08-14T11:47:47;33.90;45.30
60353;DHT22;46196;52.970;6.954;2022-08-14T11:50:33;34.10;44.90
60353;DHT22;46196;52.970;6.954;2022-08-14T11:53:00;34.20;44.50
60353;DHT22;46196;52.970;6.954;2022-08-14T11:55:33;34.30;44.60
60353;DHT22;46196;52.970;6.954;2022-08-14T11:58:02;34.20;44.40
60353;DHT22;46196;52.970;6.954;2022-08-14T12:00:28;34.20;44.60
60353;DHT22;46196;52.970;6.954;2022-08-14T12:02:59;34.20;44.90
60353;DHT22;46196;52.970;6.954;2022-08-14T12:05:43;34.20;44.70
60353;DHT22;46196;52.970;6.954;2022-08-14T12:08:09;34.10;44.30
60353;DHT22;46196;52.970;6.954;2022-08-14T12:10:37;34.00;44.80
60353;DHT22;46196;52.970;6.954;2022-08-14T12:13:13;34.00;44.90
60353;DHT22;46196;52.970;6.954;2022-08-14T12:15:40;34.10;44.80
60353;DHT22;46196;52.970;6.954;2022-08-14T12:18:06;34.30;44.40
60353;DHT22;46196;52.970;6.954;2022-08-14T12:20:35;34.40;44.40
60353;DHT22;46196;52.970;6.954;2022-08-14T12:23:04;34.50;44.50
60353;DHT22;46196;52.970;6.954;2022-08-14T12:25:30;34.30;44.60
60353;DHT22;46196;52.970;6.954;2022-08-14T12:28:01;34.30;45.00
60353;DHT22;46196;52.970;6.954;2022-08-14T12:30:38;34.40;45.60
60353;DHT22;46196;52.970;6.954;2022-08-14T12:33:17;34.50;44.80
60353;DHT22;46196;52.970;6.954;2022-08-14T12:35:47;34.70;44.80
60353;DHT22;46196;52.970;6.954;2022-08-14T12:38:14;34.70;44.30
60353;DHT22;46196;52.970;6.954;2022-08-14T12:40:53;34.50;44.30
60353;DHT22;46196;52.970;6.954;2022-08-14T12:43:19;34.20;44.30
60353;DHT22;46196;52.970;6.954;2022-08-14T12:45:51;33.80;44.40
60353;DHT22;46196;52.970;6.954;2022-08-14T12:48:20;33.50;44.70
60353;DHT22;46196;52.970;6.954;2022-08-14T12:50:47;33.30;45.50
60353;DHT22;46196;52.970;6.954;2022-08-14T12:53:14;33.30;45.70
60353;DHT22;46196;52.970;6.954;2022-08-14T12:55:41;33.50;45.40
60353;DHT22;46196;52.970;6.954;2022-08-14T12:58:08;33.80;45.40
60353;DHT22;46196;52.970;6.954;2022-08-14T13:00:46;34.00;45.30
60353;DHT22;46196;52.970;6.954;2022-08-14T13:03:27;34.30;44.50
60353;DHT22;46196;52.970;6.954;2022-08-14T13:05:53;34.50;43.80
60353;DHT22;46196;52.970;6.954;2022-08-14T13:08:19;34.80;43.80
60353;DHT22;46196;52.970;6.954;2022-08-14T13:10:47;35.00;44.20
60353;DHT22;46196;52.970;6.954;2022-08-14T13:13:15;35.30;44.00
60353;DHT22;46196;52.970;6.954;2022-08-14T13:15:46;35.50;43.20
60353;DHT22;46196;52.970;6.954;2022-08-14T13:18:15;35.60;43.40
60353;DHT22;46196;52.970;6.954;2022-08-14T13:20:42;35.80;43.20
60353;DHT22;46196;52.970;6.954;2022-08-14T13:23:11;36.00;42.50
60353;DHT22;46196;52.970;6.954;2022-08-14T13:25:39;36.00;41.70
60353;DHT22;46196;52.970;6.954;2022-08-14T13:28:10;35.80;41.40
60353;DHT22;46196;52.970;6.954;2022-08-14T13:30:37;35.70;41.40
60353;DHT22;46196;52.970;6.954;2022-08-14T13:33:04;35.60;41.40
60353;DHT22;46196;52.970;6.954;2022-08-14T13:35:31;35.60;41.70
60353;DHT22;46196;52.970;6.954;2022-08-14T13:37:57;35.50;41.20
60353;DHT22;46196;52.970;6.954;2022-08-14T13:40:23;35.50;41.60
60353;DHT22;46196;52.970;6.954;2022-08-14T13:42:49;35.20;41.60
60353;DHT22;46196;52.970;6.954;2022-08-14T13:45:18;34.80;42.00
60353;DHT22;46196;52.970;6.954;2022-08-14T13:47:46;34.50;42.70
60353;DHT22;46196;52.970;6.954;2022-08-14T13:50:14;34.40;42.90
60353;DHT22;46196;52.970;6.954;2022-08-14T13:52:44;34.40;42.80
60353;DHT22;46196;52.970;6.954;2022-08-14T13:55:18;34.50;43.40
60353;DHT22;46196;52.970;6.954;2022-08-14T13:57:45;34.60;42.50
60353;DHT22;46196;52.970;6.954;2022-08-14T14:00:12;34.60;42.40
60353;DHT22;46196;52.970;6.954;2022-08-14T14:02:43;34.50;43.00
60353;DHT22;46196;52.970;6.954;2022-08-14T14:05:12;34.40;43.40
60353;DHT22;46196;52.970;6.954;2022-08-14T14:07:50;34.20;43.20
60353;DHT22;46196;52.970;6.954;2022-08-14T14:10:20;34.00;43.20
60353;DHT22;46196;52.970;6.954;2022-08-14T14:12:47;33.80;43.50
60353;DHT22;46196;52.970;6.954;2022-08-14T14:15:16;33.70;43.90
60353;DHT22;46196;52.970;6.954;2022-08-14T14:17:43;33.80;43.70
60353;DHT22;46196;52.970;6.954;2022-08-14T14:20:14;33.90;43.90
60353;DHT22;46196;52.970;6.954;2022-08-14T14:22:45;34.30;43.50
60353;DHT22;46196;52.970;6.954;2022-08-14T14:25:13;34.50;43.10
60353;DHT22;46196;52.970;6.954;2022-08-14T14:27:43;34.60;43.50
60353;DHT22;46196;52.970;6.954;2022-08-14T14:30:14;34.80;43.50
60353;DHT22;46196;52.970;6.954;2022-08-14T14:32:42;34.90;43.00
60353;DHT22;46196;52.970;6.954;2022-08-14T14:35:17;35.00;42.30
60353;DHT22;46196;52.970;6.954;2022-08-14T14:37:47;35.10;42.50
60353;DHT22;46196;52.970;6.954;2022-08-14T14:40:15;35.10;41.90
60353;DHT22;46196;52.970;6.954;2022-08-14T14:42:45;35.00;41.90
60353;DHT22;46196;52.970;6.954;2022-08-14T14:45:12;34.90;41.40
60353;DHT22;46196;52.970;6.954;2022-08-14T14:47:53;34.90;41.90
60353;DHT22;46196;52.970;6.954;2022-08-14T14:50:21;34.90;42.10
60353;DHT22;46196;52.970;6.954;2022-08-14T14:52:48;34.90;42.10
60353;DHT22;46196;52.970;6.954;2022-08-14T14:55:15;34.80;42.20
60353;DHT22;46196;52.970;6.954;2022-08-14T14:57:42;34.70;42.80
60353;DHT22;46196;52.970;6.954;2022-08-14T15:00:16;34.70;42.60
60353;DHT22;46196;52.970;6.954;2022-08-14T15:02:44;34.80;42.10
60353;DHT22;46196;52.970;6.954;2022-08-14T15:05:12;34.80;42.10
60353;DHT22;46196;52.970;6.954;2022-08-14T15:07:39;34.70;42.50
60353;DHT22;46196;52.970;6.954;2022-08-14T15:10:09;34.80;42.30
60353;DHT22;46196;52.970;6.954;2022-08-14T15:12:36;34.90;42.30
60353;DHT22;46196;52.970;6.954;2022-08-14T15:15:02;35.00;42.10
60353;DHT22;46196;52.970;6.954;2022-08-14T15:17:28;35.10;42.10
60353;DHT22;46196;52.970;6.954;2022-08-14T15:20:04;35.10;42.00
60353;DHT22;46196;52.970;6.954;2022-08-14T15:22:32;35.20;41.60
60353;DHT22;46196;52.970;6.954;2022-08-14T15:24:59;35.20;41.50
60353;DHT22;46196;52.970;6.954;2022-08-14T15:27:24;35.20;41.20
60353;DHT22;46196;52.970;6.954;2022-08-14T15:29:50;35.20;41.30
60353;DHT22;46196;52.970;6.954;2022-08-14T15:32:16;35.20;41.60
60353;DHT22;46196;52.970;6.954;2022-08-14T15:34:42;35.20;41.60
60353;DHT22;46196;52.970;6.954;2022-08-14T15:37:10;35.10;41.60
60353;DHT22;46196;52.970;6.954;2022-08-14T15:39:36;35.10;41.90
60353;DHT22;46196;52.970;6.954;2022-08-14T15:42:03;35.00;42.10
60353;DHT22;46196;52.970;6.954;2022-08-14T15:44:31;34.90;42.50
60353;DHT22;46196;52.970;6.954;2022-08-14T15:46:58;35.00;42.20
60353;DHT22;46196;52.970;6.954;2022-08-14T15:49:25;34.90;42.30
60353;DHT22;46196;52.970;6.954;2022-08-14T15:51:54;34.60;42.40
60353;DHT22;46196;52.970;6.954;2022-08-14T15:54:23;34.40;42.90
60353;DHT22;46196;52.970;6.954;2022-08-14T15:57:05;34.30;42.80
60353;DHT22;46196;52.970;6.954;2022-08-14T15:59:32;34.40;42.70
60353;DHT22;46196;52.970;6.954;2022-08-14T16:02:17;34.60;42.40
60353;DHT22;46196;52.970;6.954;2022-08-14T16:04:43;34.70;42.20
60353;DHT22;46196;52.970;6.954;2022-08-14T16:07:09;34.90;42.10
60353;DHT22;46196;52.970;6.954;2022-08-14T16:09:36;35.00;41.80
60353;DHT22;46196;52.970;6.954;2022-08-14T16:12:02;35.10;42.00
60353;DHT22;46196;52.970;6.954;2022-08-14T16:14:28;35.10;41.90